Time;durP1;ratioP1;P1;durP2;ratioP2;P2;SDS_P1;SDS_P2;PMS_P1;PMS_P2;Temp;Humidity;BMP_temperature;BMP_pressure;BME280_temperature;BME280_humidity;BME280_pressure;Samples;Min_cycle;Max_cycle;Signal;HPM_P1;HPM_P2
2022/12/23 00:01:03;;;;;;;23.60;12.55;;;10.90;99.90;;;;;;5028893;28;20036;-66
2022/12/23 00:03:29;;;;;;;17.58;11.38;;;10.90;99.90;;;;;;5026490;28;20362;-66
2022/12/23 00:05:55;;;;;;;20.08;12.80;;;10.90;99.90;;;;;;5027661;28;20048;-66
2022/12/23 00:08:22;;;;;;;18.00;11.88;;;10.90;99.90;;;;;;5026148;28;20068;-66
2022/12/23 00:10:49;;;;;;;19.63;13.38;;;10.90;99.90;;;;;;5028770;28;20037;-66
2022/12/23 00:16:06;;;;;;;20.63;12.13;;;10.90;99.90;;;;;;5025785;28;20504;-66
2022/12/23 00:18:32;;;;;;;23.02;13.43;;;10.90;99.90;;;;;;5025862;28;20029;-66
2022/12/23 00:21:03;;;;;;;21.67;14.23;;;10.90;99.90;;;;;;5028448;28;20037;-66
2022/12/23 00:23:32;;;;;;;20.50;13.80;;;11.00;99.90;;;;;;5027016;28;20026;-66
2022/12/23 00:25:58;;;;;;;28.85;16.05;;;10.90;99.90;;;;;;5025715;28;20026;-66
2022/12/23 00:28:24;;;;;;;25.17;15.73;;;10.90;99.90;;;;;;5028799;28;20024;-66
2022/12/23 00:30:53;;;;;;;23.70;13.50;;;10.90;99.90;;;;;;5026263;28;20022;-66
2022/12/23 00:33:22;;;;;;;24.67;13.57;;;10.90;99.90;;;;;;5027006;28;20033;-66
2022/12/23 00:35:48;;;;;;;27.65;14.70;;;10.90;99.90;;;;;;5025596;28;20040;-66
2022/12/23 00:38:14;;;;;;;25.15;14.32;;;10.90;99.90;;;;;;5027971;28;20456;-66
2022/12/23 00:43:24;;;;;;;27.77;15.23;;;10.90;99.90;;;;;;5023755;28;20032;-66
2022/12/23 00:45:49;;;;;;;25.40;14.23;;;10.90;99.90;;;;;;5026051;28;20025;-66
2022/12/23 00:50:59;;;;;;;23.95;14.05;;;10.90;99.90;;;;;;5021886;28;20037;-66
2022/12/23 00:53:25;;;;;;;21.92;13.93;;;10.90;99.90;;;;;;5027798;28;20484;-66
2022/12/23 00:55:51;;;;;;;25.73;14.13;;;10.90;99.90;;;;;;5024645;28;20025;-66
2022/12/23 00:58:18;;;;;;;23.88;13.98;;;10.90;99.90;;;;;;5025855;28;20040;-66
2022/12/23 01:06:13;;;;;;;22.27;13.60;;;10.90;99.90;;;;;;5026488;28;20033;-66
2022/12/23 01:08:39;;;;;;;21.13;13.23;;;10.90;99.90;;;;;;5028292;28;20029;-66
2022/12/23 01:11:08;;;;;;;20.27;13.48;;;10.80;99.90;;;;;;5026684;28;20025;-66
2022/12/23 01:13:34;;;;;;;19.85;13.63;;;10.90;99.90;;;;;;5023052;28;20429;-66
2022/12/23 01:16:06;;;;;;;22.48;14.00;;;10.90;99.90;;;;;;5026267;28;20029;-66
2022/12/23 01:18:33;;;;;;;24.92;14.55;;;10.90;99.90;;;;;;5026954;28;20056;-66
2022/12/23 01:21:04;;;;;;;21.30;14.20;;;10.90;99.90;;;;;;5026372;28;20489;-66
2022/12/23 01:23:31;;;;;;;23.30;12.75;;;10.90;99.90;;;;;;5025581;28;20036;-66
2022/12/23 01:25:58;;;;;;;24.48;15.25;;;10.90;99.90;;;;;;5025185;28;20030;-66
2022/12/23 01:28:24;;;;;;;18.77;14.23;;;10.90;99.90;;;;;;5028178;28;20466;-66
2022/12/23 01:30:49;;;;;;;21.83;14.20;;;10.90;99.90;;;;;;5025263;28;20022;-66
2022/12/23 01:33:15;;;;;;;21.15;14.45;;;10.90;99.90;;;;;;5025928;28;20084;-66
2022/12/23 01:35:40;;;;;;;25.63;14.60;;;10.90;99.90;;;;;;5024430;28;20087;-66
2022/12/23 01:38:06;;;;;;;22.30;14.40;;;10.90;99.90;;;;;;5026703;28;20099;-66
2022/12/23 01:40:36;;;;;;;23.70;15.48;;;10.80;99.90;;;;;;5023843;28;20045;-66
2022/12/23 01:43:02;;;;;;;24.42;15.00;;;10.90;99.90;;;;;;5022977;28;20037;-66
2022/12/23 01:45:29;;;;;;;21.52;14.43;;;10.80;99.90;;;;;;5027767;28;20025;-66
2022/12/23 01:48:08;;;;;;;21.27;14.27;;;10.80;99.90;;;;;;5025648;28;20048;-66
2022/12/23 01:50:42;;;;;;;20.77;14.10;;;10.90;99.90;;;;;;5022693;28;20135;-66
2022/12/23 01:53:29;;;;;;;19.88;12.95;;;10.80;99.90;;;;;;5026051;28;20396;-66
2022/12/23 01:56:04;;;;;;;18.70;13.63;;;10.90;99.90;;;;;;5022889;28;20481;-66
2022/12/23 01:58:33;;;;;;;23.05;15.50;;;10.80;99.90;;;;;;5025365;28;20517;-66
2022/12/23 02:03:46;;;;;;;19.17;14.18;;;10.90;99.90;;;;;;5025820;28;20048;-66
2022/12/23 02:09:34;;;;;;;26.58;15.27;;;10.90;99.90;;;;;;5024051;28;20058;-66
2022/12/23 02:12:25;;;;;;;24.92;16.95;;;10.90;99.90;;;;;;5024366;28;20033;-66
2022/12/23 02:18:32;;;;;;;29.02;18.00;;;10.80;99.90;;;;;;5021988;28;20132;-66
2022/12/23 02:21:04;;;;;;;27.45;18.45;;;10.80;99.90;;;;;;5024939;28;20521;-66
2022/12/23 02:23:48;;;;;;;29.25;18.30;;;10.80;99.90;;;;;;5025080;28;20041;-66
2022/12/23 02:26:43;;;;;;;26.58;17.50;;;10.80;99.90;;;;;;5022588;28;20022;-66
2022/12/23 02:29:29;;;;;;;28.05;18.23;;;10.80;99.90;;;;;;5025104;28;20087;-66
2022/12/23 02:32:06;;;;;;;24.30;16.05;;;10.80;99.90;;;;;;5023286;28;20021;-66
2022/12/23 02:34:41;;;;;;;23.45;14.45;;;10.80;99.90;;;;;;5022694;28;20452;-66
2022/12/23 02:37:38;;;;;;;20.77;14.82;;;10.80;99.90;;;;;;5024485;28;20061;-66
2022/12/23 02:40:22;;;;;;;23.85;14.20;;;10.80;99.90;;;;;;5035228;28;20041;-66
2022/12/23 02:43:11;;;;;;;21.10;12.57;;;10.80;99.90;;;;;;5024660;28;20104;-66
2022/12/23 02:45:57;;;;;;;17.95;14.05;;;10.80;99.90;;;;;;5026845;28;20025;-66
2022/12/23 02:48:28;;;;;;;17.63;13.57;;;10.80;99.90;;;;;;5025483;28;20171;-66
2022/12/23 02:50:56;;;;;;;17.80;12.82;;;10.80;99.90;;;;;;5025761;28;20029;-66
2022/12/23 02:53:39;;;;;;;20.55;13.63;;;10.80;99.90;;;;;;5031158;28;20064;-66
2022/12/23 02:56:07;;;;;;;20.42;13.68;;;10.80;99.90;;;;;;5027548;28;20035;-66
2022/12/23 02:58:40;;;;;;;21.33;13.43;;;10.80;99.90;;;;;;5027692;28;20108;-66
2022/12/23 03:01:06;;;;;;;19.70;13.27;;;10.80;99.90;;;;;;5030298;28;20041;-66
2022/12/23 03:03:35;;;;;;;25.75;13.80;;;10.80;99.90;;;;;;5027639;28;20017;-66
2022/12/23 03:06:01;;;;;;;18.63;13.45;;;10.80;99.90;;;;;;5028622;28;20025;-66
2022/12/23 03:08:33;;;;;;;21.05;13.27;;;10.80;99.90;;;;;;5027862;28;20113;-66
2022/12/23 03:11:08;;;;;;;20.35;13.05;;;10.80;99.90;;;;;;5029179;28;20025;-66
2022/12/23 03:13:52;;;;;;;16.67;11.65;;;10.80;99.90;;;;;;5028689;28;20018;-66
2022/12/23 03:16:33;;;;;;;15.77;11.15;;;10.80;99.90;;;;;;5024274;28;20069;-66
2022/12/23 03:19:18;;;;;;;14.50;10.23;;;10.80;99.90;;;;;;5026018;28;20021;-66
2022/12/23 03:21:58;;;;;;;15.00;10.10;;;10.80;99.90;;;;;;5022333;28;20037;-66
2022/12/23 03:24:56;;;;;;;12.68;8.90;;;10.70;99.90;;;;;;5028294;28;20022;-66
2022/12/23 03:27:42;;;;;;;12.85;8.18;;;10.80;99.90;;;;;;5019332;28;20076;-66
2022/12/23 03:30:08;;;;;;;12.07;8.90;;;10.70;99.90;;;;;;5027113;28;20030;-66
2022/12/23 03:32:48;;;;;;;10.93;8.15;;;10.70;99.90;;;;;;5025751;28;20163;-66
2022/12/23 03:35:18;;;;;;;12.75;9.07;;;10.70;99.90;;;;;;5029599;28;20158;-66
2022/12/23 03:37:48;;;;;;;12.70;9.02;;;10.70;99.90;;;;;;5029212;28;20099;-66
2022/12/23 03:40:26;;;;;;;11.18;8.75;;;10.70;99.90;;;;;;5026167;28;20132;-66
2022/12/23 03:43:08;;;;;;;11.38;9.32;;;10.70;99.90;;;;;;5025168;28;20388;-66
2022/12/23 03:45:41;;;;;;;12.48;7.68;;;10.70;99.90;;;;;;5029982;28;20033;-66
2022/12/23 03:48:21;;;;;;;13.43;9.10;;;10.70;99.90;;;;;;5028090;28;20400;-66
2022/12/23 03:50:54;;;;;;;12.85;9.10;;;10.70;99.90;;;;;;5026450;28;20017;-66
2022/12/23 03:53:24;;;;;;;12.88;9.98;;;10.70;99.90;;;;;;5025713;28;20389;-66
2022/12/23 03:55:59;;;;;;;16.75;11.10;;;10.70;99.90;;;;;;5026109;28;20048;-66
2022/12/23 03:58:45;;;;;;;14.88;10.55;;;10.70;99.90;;;;;;5027471;28;20377;-66
2022/12/23 04:01:45;;;;;;;13.75;10.77;;;10.70;99.90;;;;;;5027372;28;20515;-66
2022/12/23 04:04:10;;;;;;;17.90;11.23;;;10.70;99.90;;;;;;5025915;28;20026;-66
2022/12/23 04:06:55;;;;;;;17.45;10.85;;;10.60;99.90;;;;;;5029088;28;20021;-66
2022/12/23 04:09:23;;;;;;;18.55;11.52;;;10.70;99.90;;;;;;5029030;28;20104;-66
2022/12/23 04:11:50;;;;;;;18.20;11.68;;;10.70;99.90;;;;;;5027528;28;20032;-66
2022/12/23 04:14:17;;;;;;;17.38;11.85;;;10.70;99.90;;;;;;5027561;28;20052;-66
2022/12/23 04:16:44;;;;;;;14.88;9.82;;;10.70;99.90;;;;;;5025350;28;20500;-66
2022/12/23 04:19:09;;;;;;;15.20;10.18;;;10.70;99.90;;;;;;5026554;28;20132;-66
2022/12/23 04:21:34;;;;;;;16.60;11.30;;;10.70;99.90;;;;;;5026106;28;20601;-66
2022/12/23 04:24:00;;;;;;;16.70;9.75;;;10.70;99.90;;;;;;5029202;28;20350;-66
2022/12/23 04:26:25;;;;;;;14.88;9.90;;;10.60;99.90;;;;;;5027037;28;20037;-66
2022/12/23 04:28:51;;;;;;;13.32;9.32;;;10.70;99.90;;;;;;5026794;28;20026;-66
2022/12/23 04:31:16;;;;;;;12.88;8.85;;;10.70;99.90;;;;;;5026445;28;20099;-66
2022/12/23 04:33:42;;;;;;;10.30;7.88;;;10.60;99.90;;;;;;5028935;28;20061;-66
2022/12/23 04:36:07;;;;;;;10.63;7.70;;;10.60;99.90;;;;;;5027693;28;20029;-66
2022/12/23 04:38:33;;;;;;;10.20;7.28;;;10.60;99.90;;;;;;5025770;28;20052;-66
2022/12/23 04:40:58;;;;;;;10.75;8.20;;;10.60;99.90;;;;;;5028827;28;20109;-66
2022/12/23 04:43:24;;;;;;;10.75;8.05;;;10.60;99.90;;;;;;5026850;28;20108;-66
2022/12/23 04:45:50;;;;;;;11.07;7.82;;;10.60;99.90;;;;;;5027296;28;20286;-66
2022/12/23 04:48:17;;;;;;;11.27;8.43;;;10.60;99.90;;;;;;5024165;28;20041;-66
2022/12/23 04:50:42;;;;;;;11.95;8.60;;;10.60;99.90;;;;;;5028272;28;20669;-66
2022/12/23 04:53:17;;;;;;;11.32;8.05;;;10.60;99.90;;;;;;5026654;28;20120;-66
2022/12/23 04:55:42;;;;;;;7.68;6.40;;;10.60;99.90;;;;;;5025479;28;20025;-66
2022/12/23 04:58:08;;;;;;;9.10;6.47;;;10.50;99.90;;;;;;5024033;28;20504;-66
2022/12/23 05:00:33;;;;;;;8.20;5.90;;;10.60;99.90;;;;;;5028287;28;20560;-66
2022/12/23 05:02:59;;;;;;;7.53;5.60;;;10.60;99.90;;;;;;5025850;28;20033;-66
2022/12/23 05:05:24;;;;;;;6.97;4.88;;;10.60;99.90;;;;;;5027045;28;20040;-66
2022/12/23 05:07:50;;;;;;;7.32;5.00;;;10.50;99.90;;;;;;5026058;28;20164;-66
2022/12/23 05:10:16;;;;;;;7.95;5.03;;;10.60;99.90;;;;;;5025804;28;20025;-66
2022/12/23 05:12:41;;;;;;;8.52;5.35;;;10.60;99.90;;;;;;5025402;28;20036;-66
2022/12/23 05:15:07;;;;;;;7.45;5.30;;;10.60;99.90;;;;;;5026793;28;20775;-66
2022/12/23 05:17:33;;;;;;;9.73;5.68;;;10.60;99.90;;;;;;5024292;28;20033;-66
2022/12/23 05:19:59;;;;;;;8.63;6.65;;;10.60;99.90;;;;;;5025270;28;20022;-66
2022/12/23 05:22:24;;;;;;;12.02;7.10;;;10.60;99.90;;;;;;5042035;28;20053;-66
2022/12/23 05:24:50;;;;;;;11.43;7.53;;;10.60;99.90;;;;;;5026292;28;20033;-66
2022/12/23 05:27:15;;;;;;;13.10;8.52;;;10.50;99.90;;;;;;5025848;28;20033;-66
2022/12/23 05:29:41;;;;;;;11.45;8.05;;;10.60;99.90;;;;;;5024236;28;20092;-66
2022/12/23 05:32:06;;;;;;;11.48;7.82;;;10.60;99.90;;;;;;5027155;28;20107;-66
2022/12/23 05:34:31;;;;;;;11.07;7.35;;;10.60;99.90;;;;;;5025489;28;20033;-66
2022/12/23 05:36:57;;;;;;;11.60;8.40;;;10.60;99.90;;;;;;5026696;28;20472;-66
2022/12/23 05:39:23;;;;;;;12.18;8.10;;;10.60;99.90;;;;;;5025605;28;20025;-66
2022/12/23 05:41:48;;;;;;;13.45;8.52;;;10.60;99.90;;;;;;5026726;28;20038;-66
2022/12/23 05:44:14;;;;;;;11.70;8.20;;;10.60;99.90;;;;;;5025064;28;20104;-66
2022/12/23 05:46:39;;;;;;;10.98;8.10;;;10.50;99.90;;;;;;5026063;28;20032;-66
2022/12/23 05:49:04;;;;;;;9.60;6.95;;;10.60;99.90;;;;;;5024864;28;20195;-66
2022/12/23 05:51:30;;;;;;;10.32;7.35;;;10.60;99.90;;;;;;5027060;28;20359;-66
2022/12/23 05:53:56;;;;;;;10.23;7.30;;;10.50;99.90;;;;;;5024576;28;20029;-66
2022/12/23 05:56:21;;;;;;;9.30;6.63;;;10.60;99.90;;;;;;5025903;28;20040;-66
2022/12/23 05:59:17;;;;;;;10.40;7.07;;;10.50;99.90;;;;;;5027277;28;20034;-66
2022/12/23 06:01:42;;;;;;;12.60;6.93;;;10.60;99.90;;;;;;5024538;28;20107;-66
2022/12/23 06:04:08;;;;;;;11.32;7.97;;;10.50;99.90;;;;;;5024482;28;20067;-66
2022/12/23 06:06:33;;;;;;;12.25;8.15;;;10.50;99.90;;;;;;5024630;28;20033;-66
2022/12/23 06:08:59;;;;;;;11.18;7.32;;;10.50;99.90;;;;;;5027564;28;20038;-66
2022/12/23 06:11:24;;;;;;;13.63;8.27;;;10.50;99.90;;;;;;5025646;28;20894;-66
2022/12/23 06:13:51;;;;;;;15.95;8.82;;;10.50;99.90;;;;;;5026118;28;20029;-66
2022/12/23 06:16:17;;;;;;;13.07;9.35;;;10.50;99.90;;;;;;5025533;28;20067;-66
2022/12/23 06:18:42;;;;;;;13.73;9.32;;;10.50;99.90;;;;;;5023841;28;20100;-66
2022/12/23 06:21:08;;;;;;;14.68;9.73;;;10.50;99.90;;;;;;5024592;28;20084;-66
2022/12/23 06:23:34;;;;;;;16.85;10.90;;;10.50;99.90;;;;;;5026017;28;20461;-66
2022/12/23 06:26:00;;;;;;;18.83;10.80;;;10.50;99.90;;;;;;5031468;28;20025;-66
2022/12/23 06:28:26;;;;;;;17.55;10.75;;;10.50;99.90;;;;;;5027874;28;20022;-66
2022/12/23 06:30:55;;;;;;;18.08;11.95;;;10.50;99.90;;;;;;5031532;28;20014;-66
2022/12/23 06:33:22;;;;;;;19.58;12.15;;;10.50;99.90;;;;;;5031600;28;20064;-66
2022/12/23 06:36:06;;;;;;;21.63;13.15;;;10.50;99.90;;;;;;5034541;28;20033;-66
2022/12/23 06:38:34;;;;;;;18.90;12.13;;;10.60;99.90;;;;;;5032346;28;20068;-66
2022/12/23 06:48:39;;;;;;;14.18;10.00;;;10.50;99.90;;;;;;4859646;29;20049;-66
2022/12/23 06:51:05;;;;;;;16.45;11.13;;;10.50;99.90;;;;;;4893815;29;20104;-66
2022/12/23 06:53:30;;;;;;;15.27;9.57;;;10.50;99.90;;;;;;4973765;28;20038;-66
2022/12/23 06:56:02;;;;;;;16.95;11.00;;;10.50;99.90;;;;;;5013100;28;20041;-66
2022/12/23 06:58:28;;;;;;;17.55;10.68;;;10.60;99.90;;;;;;5021759;28;20447;-66
2022/12/23 07:00:54;;;;;;;16.65;11.05;;;10.50;99.90;;;;;;5015977;28;20493;-66
2022/12/23 07:03:20;;;;;;;17.27;11.20;;;10.50;99.90;;;;;;5019272;28;20068;-66
2022/12/23 07:05:47;;;;;;;17.92;10.30;;;10.50;99.90;;;;;;5029942;28;20026;-66
2022/12/23 07:08:13;;;;;;;14.88;9.40;;;10.50;99.90;;;;;;5019901;28;20571;-66
2022/12/23 07:10:38;;;;;;;20.85;12.30;;;10.50;99.90;;;;;;5032670;28;20120;-66
2022/12/23 07:13:04;;;;;;;17.52;11.15;;;10.50;99.90;;;;;;5028970;28;20055;-66
2022/12/23 07:15:29;;;;;;;22.75;12.65;;;10.50;99.90;;;;;;5030946;28;20393;-66
2022/12/23 07:17:55;;;;;;;19.40;11.40;;;10.50;99.90;;;;;;5023233;28;20049;-66
2022/12/23 07:20:20;;;;;;;14.95;9.88;;;10.50;99.90;;;;;;5014933;28;20092;-66
2022/12/23 07:22:45;;;;;;;20.88;11.75;;;10.50;99.90;;;;;;5018669;28;21047;-66
2022/12/23 07:25:11;;;;;;;20.30;11.30;;;10.50;99.90;;;;;;5012872;28;20167;-66
2022/12/23 07:27:36;;;;;;;21.52;12.52;;;10.60;99.90;;;;;;5017410;28;20032;-67
2022/12/23 07:30:02;;;;;;;19.38;11.05;;;10.50;99.90;;;;;;5022818;28;20029;-66
2022/12/23 07:32:28;;;;;;;20.20;11.02;;;10.50;99.90;;;;;;5018867;28;20108;-66
2022/12/23 07:34:53;;;;;;;19.40;11.98;;;10.50;99.90;;;;;;5018477;28;20470;-66
2022/12/23 07:37:19;;;;;;;19.92;11.50;;;10.50;99.90;;;;;;5018213;28;20099;-66
2022/12/23 07:39:45;;;;;;;17.20;11.38;;;10.50;99.90;;;;;;5017813;28;20038;-66
2022/12/23 07:42:10;;;;;;;23.33;12.77;;;10.50;99.90;;;;;;5014078;28;20034;-66
2022/12/23 07:44:36;;;;;;;22.00;12.27;;;10.50;99.90;;;;;;5027409;28;20108;-66
2022/12/23 07:47:02;;;;;;;19.15;11.75;;;10.50;99.90;;;;;;5028588;28;20564;-66
2022/12/23 07:49:27;;;;;;;21.92;11.95;;;10.50;99.90;;;;;;5030899;28;20398;-66
2022/12/23 07:51:53;;;;;;;19.40;12.50;;;10.50;99.90;;;;;;5031646;28;20017;-66
2022/12/23 07:54:18;;;;;;;19.33;11.80;;;10.50;99.90;;;;;;5028364;28;20029;-66
2022/12/23 07:56:44;;;;;;;18.27;11.23;;;10.50;99.90;;;;;;5033509;28;20025;-66
2022/12/23 07:59:09;;;;;;;17.75;10.77;;;10.50;99.90;;;;;;5029480;28;20069;-66
2022/12/23 08:01:35;;;;;;;18.65;11.52;;;10.50;99.90;;;;;;5028308;28;20091;-66
2022/12/23 08:04:12;;;;;;;15.35;9.52;;;10.40;99.90;;;;;;5029317;28;20033;-66
2022/12/23 08:07:07;;;;;;;;;;;;;;;;;;;;;
2022/12/23 08:09:33;;;;;;;18.42;10.63;;;10.40;99.90;;;;;;5026565;28;20018;-66
2022/12/23 08:15:23;;;;;;;15.55;9.68;;;10.50;99.90;;;;;;5013576;28;20036;-66
2022/12/23 08:17:49;;;;;;;17.02;10.30;;;10.40;99.90;;;;;;5024300;28;20037;-66
2022/12/23 08:20:14;;;;;;;16.25;10.43;;;10.40;99.90;;;;;;5035341;28;20029;-66
2022/12/23 08:22:40;;;;;;;24.75;13.43;;;10.40;99.90;;;;;;5048397;28;20036;-66
2022/12/23 08:25:06;;;;;;;19.35;12.63;;;10.40;99.90;;;;;;5033509;28;20030;-66
2022/12/23 08:27:31;;;;;;;23.27;13.43;;;10.40;99.90;;;;;;5024847;28;20033;-66
2022/12/23 08:29:57;;;;;;;21.15;12.38;;;10.40;99.90;;;;;;5037267;28;20034;-66
2022/12/23 08:32:48;;;;;;;16.45;11.38;;;10.40;99.90;;;;;;5037671;28;20017;-66
2022/12/23 08:35:14;;;;;;;26.67;17.60;;;10.40;99.90;;;;;;5033518;28;20045;-66
2022/12/23 08:37:39;;;;;;;27.33;16.95;;;10.40;99.90;;;;;;5029833;28;20556;-66
2022/12/23 08:44:00;;;;;;;23.05;15.60;;;10.20;99.90;;;;;;5022421;28;20022;-66
2022/12/23 08:46:25;;;;;;;26.80;17.25;;;10.20;99.90;;;;;;5012323;28;20134;-66
2022/12/23 08:48:52;;;;;;;27.98;17.58;;;10.10;99.90;;;;;;5016423;28;20484;-66
2022/12/23 08:51:19;;;;;;;27.92;17.80;;;10.10;99.90;;;;;;5014316;28;20097;-66
2022/12/23 08:53:45;;;;;;;29.33;18.13;;;10.10;99.90;;;;;;5013018;28;20054;-66
2022/12/23 08:56:38;;;;;;;33.42;20.65;;;10.10;99.90;;;;;;5017490;28;20032;-66
2022/12/23 09:02:56;;;;;;;38.15;22.42;;;10.00;99.90;;;;;;5020563;28;20128;-66
2022/12/23 09:05:22;;;;;;;36.60;21.80;;;10.00;99.90;;;;;;5005490;28;20371;-66
2022/12/23 09:07:48;;;;;;;31.27;20.98;;;9.90;99.90;;;;;;5015463;28;20029;-66
2022/12/23 09:10:13;;;;;;;37.38;22.55;;;9.90;99.90;;;;;;5017999;28;20018;-66
2022/12/23 09:12:39;;;;;;;42.72;25.20;;;9.90;99.90;;;;;;5026128;28;20056;-66
2022/12/23 09:15:05;;;;;;;39.33;23.13;;;10.00;99.90;;;;;;5018258;28;20114;-66
2022/12/23 09:17:30;;;;;;;45.00;26.92;;;10.00;99.90;;;;;;5017094;28;20397;-66
2022/12/23 09:19:56;;;;;;;41.92;25.92;;;10.00;99.90;;;;;;5016531;28;20029;-66
2022/12/23 09:22:21;;;;;;;45.22;25.77;;;10.00;99.90;;;;;;5016631;28;20065;-66
2022/12/23 09:25:22;;;;;;;;;;;;;;;;;;;;;
2022/12/23 09:31:13;;;;;;;45.47;25.95;;;10.00;99.90;;;;;;5011225;28;20108;-66
2022/12/23 09:33:39;;;;;;;43.15;25.58;;;9.90;99.90;;;;;;5032016;28;20022;-66
2022/12/23 09:36:09;;;;;;;42.88;25.95;;;9.90;99.90;;;;;;5020647;28;20104;-66
2022/12/23 09:38:35;;;;;;;45.05;26.33;;;9.90;99.90;;;;;;5032933;28;20405;-66
2022/12/23 09:41:41;;;;;;;47.25;26.13;;;9.90;99.90;;;;;;5028549;28;20033;-66
2022/12/23 09:44:17;;;;;;;52.40;30.45;;;9.90;99.90;;;;;;5027894;28;20433;-66
2022/12/23 09:50:25;;;;;;;59.05;31.38;;;9.90;99.90;;;;;;4992558;28;20507;-66
2022/12/23 09:53:01;;;;;;;56.20;31.10;;;9.90;99.90;;;;;;5026222;28;20079;-66
2022/12/23 09:55:47;;;;;;;57.38;33.55;;;9.90;99.90;;;;;;5032276;28;20080;-66
2022/12/23 09:58:39;;;;;;;62.40;33.55;;;9.90;99.90;;;;;;5021464;28;20029;-66
2022/12/23 10:01:04;;;;;;;59.30;32.03;;;10.00;99.90;;;;;;5015620;28;20022;-66
2022/12/23 10:03:46;;;;;;;65.00;34.38;;;9.90;99.90;;;;;;5017410;28;20034;-66
2022/12/23 10:06:20;;;;;;;61.97;32.53;;;10.00;99.90;;;;;;5013529;28;20078;-66
2022/12/23 10:08:49;;;;;;;66.32;33.35;;;9.90;99.90;;;;;;5014445;28;20026;-66
2022/12/23 10:11:34;;;;;;;67.30;36.67;;;10.00;99.90;;;;;;5014937;28;20010;-66
2022/12/23 10:14:02;;;;;;;68.90;36.80;;;10.00;99.90;;;;;;5014439;28;20552;-66
2022/12/23 10:16:38;;;;;;;67.65;37.45;;;10.00;99.90;;;;;;5017045;28;20492;-66
2022/12/23 10:19:23;;;;;;;71.25;39.28;;;10.00;99.90;;;;;;5017570;28;20037;-66
2022/12/23 10:21:59;;;;;;;71.03;36.97;;;10.00;99.90;;;;;;5018929;28;20026;-66
2022/12/23 10:24:28;;;;;;;76.35;37.42;;;10.00;99.90;;;;;;5027806;28;20017;-66
2022/12/23 10:27:16;;;;;;;71.75;39.83;;;10.00;99.90;;;;;;5024667;28;20151;-66
2022/12/23 10:29:41;;;;;;;75.85;38.08;;;10.00;99.90;;;;;;5018538;28;20041;-66
2022/12/23 10:32:20;;;;;;;72.00;39.65;;;10.00;99.90;;;;;;5027676;28;20156;-66
2022/12/23 10:35:04;;;;;;;69.70;36.55;;;10.00;99.90;;;;;;5022397;28;20026;-66
2022/12/23 10:37:44;;;;;;;76.53;39.78;;;10.00;99.90;;;;;;5025694;28;20099;-66
2022/12/23 10:40:21;;;;;;;66.55;35.45;;;10.00;99.90;;;;;;5028541;28;20469;-66
2022/12/23 10:43:16;;;;;;;69.80;34.60;;;10.00;99.90;;;;;;5025644;28;20102;-66
2022/12/23 10:45:57;;;;;;;65.40;35.92;;;10.00;99.90;;;;;;5041753;28;20036;-66
2022/12/23 10:48:44;;;;;;;63.97;36.05;;;10.00;99.90;;;;;;5023733;28;20432;-66
2022/12/23 10:51:37;;;;;;;66.65;35.85;;;10.00;99.90;;;;;;5023792;28;20486;-66
2022/12/23 10:54:10;;;;;;;64.65;34.90;;;10.00;99.90;;;;;;5028369;28;20033;-66
2022/12/23 10:56:36;;;;;;;69.55;35.40;;;10.00;99.90;;;;;;5027284;28;20560;-66
2022/12/23 10:59:18;;;;;;;61.38;32.65;;;10.00;99.90;;;;;;5020325;28;20101;-66
2022/12/23 11:03:15;;;;;;;54.63;29.80;;;10.00;99.90;;;;;;5018887;28;20071;-66
2022/12/23 11:05:24;;;;;;;52.72;31.00;;;10.00;99.90;;;;;;5019731;28;20115;-66
2022/12/23 11:15:43;;;;;;;44.97;24.52;;;10.00;99.90;;;;;;4944963;29;20043;-66
2022/12/23 11:18:12;;;;;;;46.40;25.83;;;9.90;99.90;;;;;;4934717;29;20082;-66
2022/12/23 11:20:40;;;;;;;46.45;26.33;;;9.90;99.90;;;;;;5012711;28;20069;-66
2022/12/23 11:23:23;;;;;;;42.45;25.15;;;10.00;99.90;;;;;;5020876;28;20061;-66
2022/12/23 11:26:36;;;;;;;;;;;;;;;;;;;;;
2022/12/23 11:32:28;;;;;;;40.28;22.85;;;10.00;99.90;;;;;;5018275;28;20390;-66
2022/12/23 11:36:30;;;;;;;39.78;24.13;;;9.90;99.90;;;;;;5013928;28;20030;-66
2022/12/23 11:38:25;;;;;;;34.75;21.10;;;10.00;99.90;;;;;;5017066;28;20100;-66
2022/12/23 11:40:50;;;;;;;38.03;22.40;;;9.90;99.90;;;;;;5013918;28;20490;-66
2022/12/23 11:43:17;;;;;;;42.20;25.55;;;10.00;99.90;;;;;;5014396;28;20029;-66
2022/12/23 11:45:43;;;;;;;36.80;22.35;;;9.90;99.90;;;;;;5016473;28;20065;-66
2022/12/23 11:48:27;;;;;;;34.78;21.67;;;9.90;99.90;;;;;;5022489;28;20057;-66
2022/12/23 11:51:01;;;;;;;34.85;21.27;;;10.00;99.90;;;;;;5019195;28;20030;-66
2022/12/23 11:53:27;;;;;;;30.75;21.27;;;9.90;99.90;;;;;;5020076;28;20033;-66
2022/12/23 11:56:12;;;;;;;31.73;20.52;;;9.90;99.90;;;;;;5029403;28;20052;-66
2022/12/23 11:58:58;;;;;;;36.67;21.95;;;9.90;99.90;;;;;;5029520;28;20465;-65
2022/12/23 12:01:24;;;;;;;38.25;20.90;;;9.90;99.90;;;;;;5032176;28;20024;-66
2022/12/23 12:04:10;;;;;;;30.48;20.63;;;9.90;99.90;;;;;;5046885;28;20021;-66
2022/12/23 12:10:04;;;;;;;33.53;20.17;;;9.90;99.90;;;;;;5012492;28;20032;-66
2022/12/23 12:12:29;;;;;;;32.80;20.75;;;9.90;99.90;;;;;;5024966;28;20021;-66
2022/12/23 12:14:59;;;;;;;35.92;20.90;;;9.90;99.90;;;;;;5019326;28;20121;-66
2022/12/23 12:17:47;;;;;;;38.00;22.05;;;10.00;99.90;;;;;;5014798;28;20017;-66
2022/12/23 12:20:12;;;;;;;32.08;21.05;;;10.00;99.90;;;;;;5031281;28;20034;-66
2022/12/23 12:23:05;;;;;;;33.70;20.48;;;9.90;99.90;;;;;;5039168;28;20113;-66
2022/12/23 12:25:54;;;;;;;26.92;19.90;;;9.90;99.90;;;;;;5018478;28;20158;-66
2022/12/23 12:28:28;;;;;;;34.23;21.97;;;9.90;99.90;;;;;;5020000;28;20558;-66
2022/12/23 12:31:01;;;;;;;32.33;21.80;;;9.90;99.90;;;;;;5031136;28;20256;-66
2022/12/23 12:33:37;;;;;;;32.40;20.92;;;9.90;99.90;;;;;;5026239;28;20045;-66
2022/12/23 12:36:17;;;;;;;33.83;21.42;;;9.90;99.90;;;;;;5031019;28;20039;-66
2022/12/23 12:38:46;;;;;;;28.13;20.20;;;9.90;99.90;;;;;;5031838;28;20037;-66
2022/12/23 12:41:14;;;;;;;31.93;21.37;;;9.90;99.90;;;;;;5031539;28;20021;-66
2022/12/23 12:43:50;;;;;;;28.50;19.38;;;9.90;99.90;;;;;;5028068;28;20435;-66
2022/12/23 12:46:29;;;;;;;31.70;21.75;;;9.90;99.90;;;;;;5027461;28;20575;-66
2022/12/23 12:49:23;;;;;;;28.23;19.50;;;9.90;99.90;;;;;;5031064;28;20024;-66
2022/12/23 12:52:02;;;;;;;30.75;17.98;;;9.90;99.90;;;;;;5029949;28;20053;-67
2022/12/23 12:54:38;;;;;;;28.63;19.58;;;9.80;99.90;;;;;;5027683;28;20121;-66
2022/12/23 12:57:04;;;;;;;29.23;17.85;;;9.80;99.90;;;;;;5018485;28;20021;-66
2022/12/23 12:59:39;;;;;;;27.77;18.30;;;9.80;99.90;;;;;;5036547;28;20103;-66
2022/12/23 13:02:37;;;;;;;31.38;17.98;;;9.90;99.90;;;;;;5035705;28;20037;-66
2022/12/23 13:05:40;;;;;;;26.33;18.40;;;9.90;99.90;;;;;;5015599;28;20478;-66
2022/12/23 13:08:32;;;;;;;25.40;17.13;;;10.00;99.90;;;;;;5016864;28;20402;-67
2022/12/23 13:11:21;;;;;;;26.63;16.83;;;10.00;99.90;;;;;;5035981;28;20104;-66
2022/12/23 13:14:45;;;;;;;22.77;15.35;;;10.00;99.90;;;;;;5021053;28;20480;-66
2022/12/23 13:17:14;;;;;;;21.23;15.43;;;10.10;99.90;;;;;;5008975;28;20088;-66
2022/12/23 13:20:14;;;;;;;21.38;13.35;;;10.10;99.90;;;;;;5019291;28;20064;-66
2022/12/23 13:22:39;;;;;;;;;;;10.20;99.90;;;;;;5025856;28;20034;-66
2022/12/23 13:25:31;;;;;;;21.35;13.63;;;10.20;99.90;;;;;;5034252;28;19914;-66
2022/12/23 13:28:32;;;;;;;18.88;12.95;;;10.20;99.90;;;;;;5022533;28;20485;-66
2022/12/23 13:31:13;;;;;;;18.17;12.73;;;10.20;99.90;;;;;;5020995;28;20025;-66
2022/12/23 13:33:55;;;;;;;19.63;13.80;;;10.20;99.90;;;;;;5033637;28;20099;-66
2022/12/23 13:36:33;;;;;;;18.55;12.30;;;10.20;99.90;;;;;;5022046;28;20039;-66
2022/12/23 13:39:21;;;;;;;17.48;12.02;;;10.20;99.90;;;;;;5030753;28;20541;-66
2022/12/23 13:41:50;;;;;;;16.58;11.75;;;10.20;99.90;;;;;;5020299;28;20375;-65
2022/12/23 13:44:17;;;;;;;19.00;11.68;;;10.20;99.90;;;;;;5017152;28;20381;-65
2022/12/23 13:47:15;;;;;;;23.48;12.52;;;10.20;99.90;;;;;;5029942;28;20075;-66
2022/12/23 13:49:43;;;;;;;18.48;12.40;;;10.30;99.90;;;;;;5027105;28;20048;-66
2022/12/23 13:52:10;;;;;;;15.57;11.52;;;10.20;99.90;;;;;;5024563;28;20061;-66
2022/12/23 13:54:41;;;;;;;21.85;14.15;;;10.20;99.90;;;;;;5026336;28;20477;-65
2022/12/23 13:57:34;;;;;;;19.25;12.45;;;10.20;99.90;;;;;;5029474;28;20393;-65
2022/12/23 14:00:23;;;;;;;19.27;12.55;;;10.20;99.90;;;;;;5040235;28;20049;-65
2022/12/23 14:03:05;;;;;;;16.42;12.32;;;10.20;99.90;;;;;;5015249;28;20040;-66
2022/12/23 14:05:34;;;;;;;18.42;12.00;;;10.10;99.90;;;;;;5025624;28;20134;-66
2022/12/23 14:08:05;;;;;;;16.85;11.43;;;10.10;99.90;;;;;;5019552;28;20104;-66